Flight Track Log - Related Links

Times and Time Zones

All times are in EDT time to prevent confusion due to time zone crossing. See the FLG3785 flight status page for this flight to view local times or setup timezone preferences in your user account.

Time Position Orientation Groundspeed Altitude Reporting Facility
EDT Latitude Longitude Course Direction KTS MPH feet Rate Location/Type
Thu 11:30:24 AM 41.4153 -81.8403 252° West 154 177 1,500  Level Cleveland Center
Thu 11:30:55 AM 41.4361 -81.8406 359° North 152 175 2,500 1,906 Climbing Cleveland Center
Thu 11:31:49 AM 41.4861 -81.8500 352° North 210 242 4,200 1,515 Climbing Cleveland Center
Thu 11:32:34 AM 41.4958 -81.9000 285° West 252 290 5,000 1,829 Climbing Cleveland Center
Thu 11:33:00 AM 41.3315 -82.3739 252° West  Level FlightAware Approximate
Thu 11:33:34 AM 41.4719 -81.9908 251° West 271 312 7,400  Level Cleveland Center
Thu 11:34:00 AM 41.3000 -82.5017 270° West  Level FlightAware Approximate
Thu 11:34:34 AM 41.4436 -82.0872 249° West 281 323 10,100  Level Cleveland Center
Thu 11:35:00 AM 41.2875 -82.6335 252° West  Level FlightAware Approximate
Thu 11:35:34 AM 41.4086 -82.1944 247° West 308 354 11,400  Level Cleveland Center
Thu 11:36:34 AM 41.3736 -82.3097 248° West 334 384 13,900 2,000 Climbing Cleveland Center
Thu 11:37:34 AM 41.3342 -82.4278 246° West 340 391 15,400 1,500 Climbing Cleveland Center
Thu 11:38:34 AM 41.3006 -82.5678 252° West 351 404 16,900 1,450 Climbing Cleveland Center
Thu 11:39:34 AM 41.2836 -82.7053 261° West 371 427 18,300 1,450 Climbing Cleveland Center
Thu 11:40:34 AM 41.2644 -82.8372 259° West 371 427 19,800 1,400 Climbing Cleveland Center
Thu 11:41:34 AM 41.2469 -82.9747 260° West 376 433 21,100 1,150 Climbing Cleveland Center
Thu 11:42:34 AM 41.2756 -83.1058 286° West 363 418 22,100 950 Climbing Cleveland Center
Thu 11:43:34 AM 41.2911 -83.2472 278° West 376 433 23,000 942 Climbing Cleveland Center
Thu 11:44:35 AM 41.3022 -83.3858 276° West 381 438 24,000 850 Climbing Cleveland Center
Thu 11:45:34 AM 41.3156 -83.5164 278° West 393 452 24,700 807 Climbing Cleveland Center
Thu 11:46:34 AM 41.3344 -83.6750 279° West 393 452 25,600 750 Climbing Cleveland Center
Thu 11:47:34 AM 41.3450 -83.8194 276° West 393 452 26,200 600 Climbing Cleveland Center
Thu 11:48:34 AM 41.3617 -83.9669 279° West 399 459 26,800 600 Climbing Cleveland Center
Thu 11:49:34 AM 41.3758 -84.1142 277° West 404 465 27,400 550 Climbing Cleveland Center
Thu 11:50:34 AM 41.3858 -84.2644 275° West 410 472 27,900 550 Climbing Cleveland Center
Thu 11:51:34 AM 41.3994 -84.4175 277° West 410 472 28,500 545 Climbing Cleveland Center
Thu 11:53:41 AM 41.4239 -84.7178 276° West 408 470 29,600 317 Climbing Chicago Center
Thu 11:54:43 AM 41.4364 -84.8661 276° West 405 466 29,500 -435 Descending Chicago Center
Thu 11:55:45 AM 41.4483 -85.0167 276° West 407 468 28,700 -732 Descending Chicago Center
Thu 11:56:46 AM 41.4597 -85.1611 276° West 394 453 28,000 -341 Descending Chicago Center
Thu 11:57:48 AM 41.4725 -85.3406 275° West 399 459 28,000  Level Chicago Center
Thu 11:58:50 AM 41.4847 -85.4936 276° West 405 466 28,000  Level Chicago Center
Thu 11:59:52 AM 41.5256 -85.6317 292° West 405 466 28,000  Level Chicago Center
Thu 12:00:54 PM 41.5983 -85.7492 310° West 408 470 28,000 -339 Level Chicago Center
Thu 12:01:56 PM 41.6708 -85.8664 310° West 408 470 27,300 -968 Descending Chicago Center
Thu 12:02:58 PM 41.7419 -85.9789 310° West 400 460 26,000 -629 Descending Chicago Center
Thu 12:04:00 PM 41.8100 -86.0878 310° West 384 442 26,000  Level Chicago Center
Thu 12:05:01 PM 41.8769 -86.1967 310° West 379 436 26,000  Level Chicago Center
Thu 12:06:03 PM 41.9450 -86.3078 309° West 384 442 26,000  Level Chicago Center
Thu 12:07:05 PM 42.0264 -86.4408 309° West 385 443 26,000  Level Chicago Center
Thu 12:08:07 PM 42.0967 -86.5536 310° West 391 450 26,000  Level Chicago Center
Thu 12:09:09 PM 42.1636 -86.6675 308° West 390 449 26,000  Level Chicago Center
Thu 12:10:10 PM 42.2314 -86.7775 310° West 397 457 26,000  Level Chicago Center
Thu 12:11:12 PM 42.3167 -86.9217 309° West 412 474 26,000  Level Chicago Center
Thu 12:12:14 PM 42.3894 -87.0425 309° West 418 481 26,000  Level Chicago Center
Thu 12:13:16 PM 42.4619 -87.1653 309° West 421 484 26,000  Level Chicago Center
Thu 12:14:18 PM 42.5358 -87.2897 309° West 426 490 26,000  Level Chicago Center
Thu 12:15:20 PM 42.6150 -87.4217 309° West 429 494 26,000  Level Chicago Center
Thu 12:16:21 PM 42.6892 -87.5492 308° West 430 495 26,000  Level Chicago Center
Thu 12:17:23 PM 42.7644 -87.6772 309° West 432 497 26,000  Level Chicago Center
Thu 12:18:25 PM 42.8478 -87.8200 309° West 433 498 26,000  Level Chicago Center
Thu 12:19:27 PM 42.9286 -87.9614 308° West 434 499 26,000  Level Chicago Center
Thu 12:20:29 PM 43.0044 -88.0906 309° West 435 501 26,000  Level Chicago Center
Thu 12:21:31 PM 43.0786 -88.2211 308° West 436 502 26,000  Level Chicago Center
Thu 12:22:33 PM 43.1553 -88.3517 309° West 440 506 26,000  Level Chicago Center
Thu 12:23:35 PM 43.2336 -88.4864 309° West 440 506 26,000  Level Chicago Center
Thu 12:24:37 PM 43.3111 -88.6169 309° West 442 509 26,000  Level Chicago Center
Thu 12:25:39 PM 43.3867 -88.7492 308° West 441 507 26,000  Level Chicago Center
Thu 12:26:41 PM 43.4772 -88.9011 309° West 454 522 26,000  Level Chicago Center
Thu 12:27:43 PM 43.5522 -89.0331 308° West 446 513 26,000  Level Chicago Center
Thu 12:28:45 PM 43.6294 -89.1650 309° West 446 513 26,000  Level Chicago Center
Thu 12:29:18 PM 43.6686 -89.2397 306° West 441 507 26,000  Level Minneapolis Center
Thu 12:30:20 PM 43.7481 -89.3769 309° West 452 520 26,000  Level Minneapolis Center
Thu 12:31:22 PM 43.8250 -89.5117 308° West 451 519 26,000  Level Minneapolis Center
Thu 12:32:23 PM 43.9153 -89.6736 308° West 449 517 26,000  Level Minneapolis Center
Thu 12:33:25 PM 43.9908 -89.8089 308° West 449 517 26,000  Level Minneapolis Center
Thu 12:34:27 PM 44.0658 -89.9439 308° West 447 514 26,000  Level Minneapolis Center
Thu 12:35:29 PM 44.1408 -90.0797 308° West 448 516 26,000  Level Minneapolis Center
Thu 12:36:31 PM 44.2158 -90.2150 308° West 446 513 26,000  Level Minneapolis Center
Thu 12:37:33 PM 44.3061 -90.3797 307° West 450 518 26,000  Level Minneapolis Center
Thu 12:38:35 PM 44.3817 -90.5175 308° West 453 521 26,000  Level Minneapolis Center
Thu 12:39:37 PM 44.4469 -90.6497 305° West 444 511 26,000  Level Minneapolis Center
Thu 12:40:39 PM 44.5169 -90.8356 298° West 450 518 26,000  Level Minneapolis Center
Thu 12:41:41 PM 44.5756 -90.9878 298° West 447 514 26,000  Level Minneapolis Center
Thu 12:42:43 PM 44.6333 -91.1461 297° West 452 520 26,000 -629 Level Minneapolis Center
Thu 12:43:45 PM 44.6944 -91.3053 298° West 462 532 24,700 -1,839 Descending Minneapolis Center
Thu 12:44:47 PM 44.7517 -91.4625 297° West 457 526 22,200 -2,439 Descending Minneapolis Center
Thu 12:45:48 PM 44.8058 -91.6097 297° West 437 503 19,700 -2,634 Descending Minneapolis Center
Thu 12:46:50 PM 44.8686 -91.7831 297° West 421 484 16,800 -2,613 Descending Minneapolis Center
Thu 12:47:52 PM 44.9186 -91.9219 297° West 402 463 14,300 -2,419 Descending Minneapolis Center
Thu 12:48:54 PM 44.9669 -92.0564 297° West 388 447 11,800 -1,597 Descending Minneapolis Center
Thu 12:49:56 PM 45.0122 -92.1875 296° West 377 434 11,000 -387 Descending Minneapolis Center
Thu 12:50:58 PM 45.0422 -92.3272 287° West 388 447 11,000 -435 Level Minneapolis Center
Thu 12:52:00 PM 44.9928 -92.4672 244° Southwest 327 376 10,100 -1,344 Descending Minneapolis Center
Thu 12:53:03 PM 44.9483 -92.5619 236° Southwest 294 338 8,200 -1,488 Descending Minneapolis Center
Thu 12:54:05 PM 44.9036 -92.6553 236° Southwest 289 333 7,000 -581 Descending Minneapolis Center
Thu 12:55:07 PM 44.8622 -92.7400 235° Southwest 264 304 7,000 -339 Level Minneapolis Center
Thu 12:56:09 PM 44.8169 -92.8083 227° Southwest 243 280 6,300 -919 Descending Minneapolis Center
Thu 12:57:11 PM 44.7850 -92.8833 239° Southwest 230 265 5,100 -968 Descending Minneapolis Center
Thu 12:58:13 PM 44.7903 -92.9906 274° West 233 268 4,300 -774 Descending Minneapolis Center

Login

Don't have an account? Register now (free) for customized features, flight alerts, and more!